sensor_id;sensor_type;location;lat;lon;timestamp;P1;durP1;ratioP1;P2;durP2;ratioP2
289;SDS011;13193;48.874;9.086;2022-08-18T00:02:14;8.23;;;5.83;;
289;SDS011;13193;48.874;9.086;2022-08-18T00:04:46;9.47;;;6.00;;
289;SDS011;13193;48.874;9.086;2022-08-18T00:07:14;9.00;;;5.93;;
289;SDS011;13193;48.874;9.086;2022-08-18T00:09:42;8.70;;;5.90;;
289;SDS011;13193;48.874;9.086;2022-08-18T00:12:13;10.27;;;5.60;;
289;SDS011;13193;48.874;9.086;2022-08-18T00:14:41;8.03;;;5.60;;
289;SDS011;13193;48.874;9.086;2022-08-18T00:17:08;12.10;;;6.33;;
289;SDS011;13193;48.874;9.086;2022-08-18T00:19:34;9.63;;;6.00;;
289;SDS011;13193;48.874;9.086;2022-08-18T00:22:00;9.53;;;6.70;;
289;SDS011;13193;48.874;9.086;2022-08-18T00:24:25;10.73;;;6.60;;
289;SDS011;13193;48.874;9.086;2022-08-18T00:26:51;7.63;;;5.53;;
289;SDS011;13193;48.874;9.086;2022-08-18T00:29:18;8.93;;;5.90;;
289;SDS011;13193;48.874;9.086;2022-08-18T00:31:44;10.83;;;6.73;;
289;SDS011;13193;48.874;9.086;2022-08-18T00:34:10;10.53;;;6.07;;
289;SDS011;13193;48.874;9.086;2022-08-18T00:36:35;12.00;;;6.80;;
289;SDS011;13193;48.874;9.086;2022-08-18T00:39:01;12.87;;;7.20;;
289;SDS011;13193;48.874;9.086;2022-08-18T00:41:27;9.93;;;6.57;;
289;SDS011;13193;48.874;9.086;2022-08-18T00:43:53;13.17;;;6.63;;
289;SDS011;13193;48.874;9.086;2022-08-18T00:46:33;14.10;;;6.53;;
289;SDS011;13193;48.874;9.086;2022-08-18T00:49:00;9.90;;;6.43;;
289;SDS011;13193;48.874;9.086;2022-08-18T00:51:37;9.87;;;5.77;;
289;SDS011;13193;48.874;9.086;2022-08-18T00:56:50;9.77;;;5.60;;
289;SDS011;13193;48.874;9.086;2022-08-18T01:01:48;10.10;;;6.47;;
289;SDS011;13193;48.874;9.086;2022-08-18T01:07:17;9.17;;;6.50;;
289;SDS011;13193;48.874;9.086;2022-08-18T01:09:49;8.47;;;5.33;;
289;SDS011;13193;48.874;9.086;2022-08-18T01:12:16;9.23;;;5.53;;
289;SDS011;13193;48.874;9.086;2022-08-18T01:14:43;10.10;;;6.10;;
289;SDS011;13193;48.874;9.086;2022-08-18T01:17:10;8.13;;;5.33;;
289;SDS011;13193;48.874;9.086;2022-08-18T01:19:54;10.27;;;6.53;;
289;SDS011;13193;48.874;9.086;2022-08-18T01:25:15;8.43;;;5.60;;
289;SDS011;13193;48.874;9.086;2022-08-18T01:28:10;8.90;;;6.30;;
289;SDS011;13193;48.874;9.086;2022-08-18T01:30:46;10.80;;;7.13;;
289;SDS011;13193;48.874;9.086;2022-08-18T01:33:14;8.83;;;6.00;;
289;SDS011;13193;48.874;9.086;2022-08-18T01:35:42;11.50;;;6.93;;
289;SDS011;13193;48.874;9.086;2022-08-18T01:38:13;12.37;;;7.20;;
289;SDS011;13193;48.874;9.086;2022-08-18T01:40:42;13.47;;;6.67;;
289;SDS011;13193;48.874;9.086;2022-08-18T01:43:08;8.97;;;6.43;;
289;SDS011;13193;48.874;9.086;2022-08-18T01:45:35;11.33;;;7.50;;
289;SDS011;13193;48.874;9.086;2022-08-18T01:48:01;11.13;;;6.83;;
289;SDS011;13193;48.874;9.086;2022-08-18T01:50:28;10.67;;;6.90;;
289;SDS011;13193;48.874;9.086;2022-08-18T01:52:58;11.70;;;7.30;;
289;SDS011;13193;48.874;9.086;2022-08-18T01:55:24;10.70;;;7.37;;
289;SDS011;13193;48.874;9.086;2022-08-18T01:57:52;13.10;;;8.37;;
289;SDS011;13193;48.874;9.086;2022-08-18T02:00:18;17.63;;;8.00;;
289;SDS011;13193;48.874;9.086;2022-08-18T02:02:45;11.93;;;7.83;;
289;SDS011;13193;48.874;9.086;2022-08-18T02:05:19;10.37;;;7.30;;
289;SDS011;13193;48.874;9.086;2022-08-18T02:07:51;10.33;;;7.03;;
289;SDS011;13193;48.874;9.086;2022-08-18T02:10:17;12.10;;;7.83;;
289;SDS011;13193;48.874;9.086;2022-08-18T02:12:43;9.17;;;6.83;;
289;SDS011;13193;48.874;9.086;2022-08-18T02:15:09;10.07;;;7.27;;
289;SDS011;13193;48.874;9.086;2022-08-18T02:17:40;8.90;;;6.70;;
289;SDS011;13193;48.874;9.086;2022-08-18T02:20:08;10.57;;;6.90;;
289;SDS011;13193;48.874;9.086;2022-08-18T02:22:35;11.00;;;7.80;;
289;SDS011;13193;48.874;9.086;2022-08-18T02:25:01;17.07;;;8.20;;
289;SDS011;13193;48.874;9.086;2022-08-18T02:27:28;15.43;;;7.03;;
289;SDS011;13193;48.874;9.086;2022-08-18T02:29:54;11.80;;;8.20;;
289;SDS011;13193;48.874;9.086;2022-08-18T02:32:19;10.10;;;6.73;;
289;SDS011;13193;48.874;9.086;2022-08-18T02:34:45;12.03;;;8.13;;
289;SDS011;13193;48.874;9.086;2022-08-18T02:37:11;11.63;;;7.10;;
289;SDS011;13193;48.874;9.086;2022-08-18T02:39:37;9.60;;;6.80;;
289;SDS011;13193;48.874;9.086;2022-08-18T02:42:06;9.50;;;7.03;;
289;SDS011;13193;48.874;9.086;2022-08-18T02:44:32;19.67;;;7.63;;
289;SDS011;13193;48.874;9.086;2022-08-18T02:46:58;14.00;;;7.67;;
289;SDS011;13193;48.874;9.086;2022-08-18T02:49:24;11.43;;;8.53;;
289;SDS011;13193;48.874;9.086;2022-08-18T02:51:50;11.10;;;7.30;;
289;SDS011;13193;48.874;9.086;2022-08-18T02:54:21;9.63;;;7.30;;
289;SDS011;13193;48.874;9.086;2022-08-18T02:56:48;13.67;;;7.83;;
289;SDS011;13193;48.874;9.086;2022-08-18T02:59:21;10.07;;;7.20;;
289;SDS011;13193;48.874;9.086;2022-08-18T03:01:49;10.87;;;7.43;;
289;SDS011;13193;48.874;9.086;2022-08-18T03:04:19;10.13;;;7.97;;
289;SDS011;13193;48.874;9.086;2022-08-18T03:06:46;9.50;;;6.43;;
289;SDS011;13193;48.874;9.086;2022-08-18T03:09:13;10.07;;;6.87;;
289;SDS011;13193;48.874;9.086;2022-08-18T03:11:40;10.83;;;6.80;;
289;SDS011;13193;48.874;9.086;2022-08-18T03:14:07;9.30;;;7.60;;
289;SDS011;13193;48.874;9.086;2022-08-18T03:16:33;10.57;;;7.00;;
289;SDS011;13193;48.874;9.086;2022-08-18T03:19:01;10.70;;;7.13;;
289;SDS011;13193;48.874;9.086;2022-08-18T03:21:28;10.60;;;7.13;;
289;SDS011;13193;48.874;9.086;2022-08-18T03:23:55;10.83;;;6.70;;
289;SDS011;13193;48.874;9.086;2022-08-18T03:26:21;11.43;;;7.37;;
289;SDS011;13193;48.874;9.086;2022-08-18T03:28:50;11.50;;;7.77;;
289;SDS011;13193;48.874;9.086;2022-08-18T03:31:17;15.10;;;8.20;;
289;SDS011;13193;48.874;9.086;2022-08-18T03:33:44;14.73;;;7.60;;
289;SDS011;13193;48.874;9.086;2022-08-18T03:36:15;9.20;;;6.80;;
289;SDS011;13193;48.874;9.086;2022-08-18T03:38:43;12.27;;;7.70;;
289;SDS011;13193;48.874;9.086;2022-08-18T03:41:12;11.73;;;8.10;;
289;SDS011;13193;48.874;9.086;2022-08-18T03:43:39;11.10;;;6.87;;
289;SDS011;13193;48.874;9.086;2022-08-18T03:46:06;10.23;;;6.90;;
289;SDS011;13193;48.874;9.086;2022-08-18T03:48:34;11.17;;;7.30;;
289;SDS011;13193;48.874;9.086;2022-08-18T03:51:05;11.37;;;8.00;;
289;SDS011;13193;48.874;9.086;2022-08-18T03:53:37;12.97;;;7.00;;
289;SDS011;13193;48.874;9.086;2022-08-18T03:56:07;12.20;;;7.80;;
289;SDS011;13193;48.874;9.086;2022-08-18T03:58:39;9.57;;;7.30;;
289;SDS011;13193;48.874;9.086;2022-08-18T04:01:09;12.53;;;7.70;;
289;SDS011;13193;48.874;9.086;2022-08-18T04:03:43;10.83;;;7.50;;
289;SDS011;13193;48.874;9.086;2022-08-18T04:06:17;11.10;;;7.73;;
289;SDS011;13193;48.874;9.086;2022-08-18T04:08:46;11.77;;;8.10;;
289;SDS011;13193;48.874;9.086;2022-08-18T04:11:14;17.10;;;8.40;;
289;SDS011;13193;48.874;9.086;2022-08-18T04:13:41;14.43;;;8.20;;
289;SDS011;13193;48.874;9.086;2022-08-18T04:16:08;11.47;;;8.20;;
289;SDS011;13193;48.874;9.086;2022-08-18T04:18:34;11.30;;;6.83;;
289;SDS011;13193;48.874;9.086;2022-08-18T04:21:04;16.00;;;8.87;;
289;SDS011;13193;48.874;9.086;2022-08-18T04:23:35;16.60;;;8.63;;
289;SDS011;13193;48.874;9.086;2022-08-18T04:26:02;12.40;;;8.27;;
289;SDS011;13193;48.874;9.086;2022-08-18T04:28:29;12.13;;;8.87;;
289;SDS011;13193;48.874;9.086;2022-08-18T04:30:55;13.00;;;9.23;;
289;SDS011;13193;48.874;9.086;2022-08-18T04:33:26;12.47;;;8.83;;
289;SDS011;13193;48.874;9.086;2022-08-18T04:35:53;11.00;;;8.30;;
289;SDS011;13193;48.874;9.086;2022-08-18T04:38:19;10.83;;;7.50;;
289;SDS011;13193;48.874;9.086;2022-08-18T04:40:46;15.60;;;8.20;;
289;SDS011;13193;48.874;9.086;2022-08-18T04:43:12;14.20;;;8.43;;
289;SDS011;13193;48.874;9.086;2022-08-18T04:45:43;15.60;;;8.57;;
289;SDS011;13193;48.874;9.086;2022-08-18T04:48:09;12.73;;;9.10;;
289;SDS011;13193;48.874;9.086;2022-08-18T04:50:36;18.13;;;8.93;;
289;SDS011;13193;48.874;9.086;2022-08-18T04:53:03;11.73;;;7.67;;
289;SDS011;13193;48.874;9.086;2022-08-18T04:55:48;15.13;;;8.17;;
289;SDS011;13193;48.874;9.086;2022-08-18T04:58:16;12.70;;;9.13;;
289;SDS011;13193;48.874;9.086;2022-08-18T05:00:43;12.80;;;9.00;;
289;SDS011;13193;48.874;9.086;2022-08-18T05:03:10;12.00;;;8.10;;
289;SDS011;13193;48.874;9.086;2022-08-18T05:05:36;12.60;;;8.40;;
289;SDS011;13193;48.874;9.086;2022-08-18T05:08:02;14.20;;;7.83;;
289;SDS011;13193;48.874;9.086;2022-08-18T05:10:28;11.80;;;8.13;;
289;SDS011;13193;48.874;9.086;2022-08-18T05:12:53;13.80;;;8.27;;
289;SDS011;13193;48.874;9.086;2022-08-18T05:15:19;12.10;;;7.67;;
289;SDS011;13193;48.874;9.086;2022-08-18T05:17:45;11.93;;;7.90;;
289;SDS011;13193;48.874;9.086;2022-08-18T05:20:11;12.73;;;8.50;;
289;SDS011;13193;48.874;9.086;2022-08-18T05:22:38;11.17;;;8.13;;
289;SDS011;13193;48.874;9.086;2022-08-18T05:25:06;15.40;;;8.50;;
289;SDS011;13193;48.874;9.086;2022-08-18T05:27:34;10.90;;;8.40;;
289;SDS011;13193;48.874;9.086;2022-08-18T05:30:01;14.87;;;8.10;;
289;SDS011;13193;48.874;9.086;2022-08-18T05:32:28;14.13;;;8.80;;
289;SDS011;13193;48.874;9.086;2022-08-18T05:34:56;14.90;;;8.43;;
289;SDS011;13193;48.874;9.086;2022-08-18T05:37:27;9.33;;;7.07;;
289;SDS011;13193;48.874;9.086;2022-08-18T05:40:03;15.30;;;9.20;;
289;SDS011;13193;48.874;9.086;2022-08-18T05:42:34;17.40;;;7.33;;
289;SDS011;13193;48.874;9.086;2022-08-18T05:45:02;18.17;;;8.50;;
289;SDS011;13193;48.874;9.086;2022-08-18T05:47:31;13.63;;;7.67;;
289;SDS011;13193;48.874;9.086;2022-08-18T05:50:01;15.10;;;8.10;;
289;SDS011;13193;48.874;9.086;2022-08-18T05:52:42;11.33;;;8.03;;
289;SDS011;13193;48.874;9.086;2022-08-18T05:55:20;12.70;;;7.70;;
289;SDS011;13193;48.874;9.086;2022-08-18T05:58:13;16.00;;;7.77;;
289;SDS011;13193;48.874;9.086;2022-08-18T06:00:53;10.47;;;7.77;;
289;SDS011;13193;48.874;9.086;2022-08-18T06:03:24;9.63;;;6.80;;
289;SDS011;13193;48.874;9.086;2022-08-18T06:06:14;10.77;;;7.10;;
289;SDS011;13193;48.874;9.086;2022-08-18T06:08:44;9.90;;;6.73;;
289;SDS011;13193;48.874;9.086;2022-08-18T06:11:14;10.83;;;7.97;;
289;SDS011;13193;48.874;9.086;2022-08-18T06:13:40;14.83;;;7.70;;
289;SDS011;13193;48.874;9.086;2022-08-18T06:18:47;10.07;;;7.40;;
289;SDS011;13193;48.874;9.086;2022-08-18T06:26:56;10.30;;;7.73;;
289;SDS011;13193;48.874;9.086;2022-08-18T06:43:59;12.27;;;7.97;;
289;SDS011;13193;48.874;9.086;2022-08-18T06:46:35;12.00;;;7.17;;
289;SDS011;13193;48.874;9.086;2022-08-18T06:49:05;11.83;;;7.63;;
289;SDS011;13193;48.874;9.086;2022-08-18T06:51:34;11.30;;;8.17;;
289;SDS011;13193;48.874;9.086;2022-08-18T06:54:24;10.00;;;7.37;;
289;SDS011;13193;48.874;9.086;2022-08-18T06:56:47;17.00;;;8.10;;
289;SDS011;13193;48.874;9.086;2022-08-18T06:59:20;11.47;;;7.50;;
289;SDS011;13193;48.874;9.086;2022-08-18T07:01:53;12.90;;;7.83;;
289;SDS011;13193;48.874;9.086;2022-08-18T07:04:33;12.30;;;8.30;;
289;SDS011;13193;48.874;9.086;2022-08-18T07:07:38;11.43;;;6.70;;
289;SDS011;13193;48.874;9.086;2022-08-18T07:10:00;11.67;;;6.53;;
289;SDS011;13193;48.874;9.086;2022-08-18T07:12:28;10.27;;;6.47;;
289;SDS011;13193;48.874;9.086;2022-08-18T07:14:57;11.30;;;7.27;;
289;SDS011;13193;48.874;9.086;2022-08-18T07:17:32;9.40;;;6.27;;
289;SDS011;13193;48.874;9.086;2022-08-18T07:22:49;9.80;;;5.83;;
289;SDS011;13193;48.874;9.086;2022-08-18T07:25:39;14.10;;;7.33;;
289;SDS011;13193;48.874;9.086;2022-08-18T07:28:10;15.00;;;6.90;;
289;SDS011;13193;48.874;9.086;2022-08-18T07:33:49;11.23;;;6.70;;
289;SDS011;13193;48.874;9.086;2022-08-18T07:36:38;13.97;;;7.63;;
289;SDS011;13193;48.874;9.086;2022-08-18T07:39:19;14.43;;;6.57;;
289;SDS011;13193;48.874;9.086;2022-08-18T07:41:55;13.37;;;7.03;;
289;SDS011;13193;48.874;9.086;2022-08-18T07:47:12;9.23;;;6.60;;
289;SDS011;13193;48.874;9.086;2022-08-18T07:49:44;13.90;;;7.87;;
289;SDS011;13193;48.874;9.086;2022-08-18T07:52:24;12.00;;;8.03;;
289;SDS011;13193;48.874;9.086;2022-08-18T08:00:21;11.97;;;7.97;;
289;SDS011;13193;48.874;9.086;2022-08-18T08:04:08;23.27;;;7.83;;
289;SDS011;13193;48.874;9.086;2022-08-18T08:06:16;12.57;;;7.40;;
289;SDS011;13193;48.874;9.086;2022-08-18T08:11:55;8.53;;;6.70;;
289;SDS011;13193;48.874;9.086;2022-08-18T08:17:23;14.03;;;8.30;;
289;SDS011;13193;48.874;9.086;2022-08-18T08:22:47;14.67;;;7.73;;
289;SDS011;13193;48.874;9.086;2022-08-18T08:25:30;20.50;;;9.30;;
289;SDS011;13193;48.874;9.086;2022-08-18T08:31:12;12.00;;;7.40;;
289;SDS011;13193;48.874;9.086;2022-08-18T08:33:46;12.73;;;8.50;;
289;SDS011;13193;48.874;9.086;2022-08-18T08:36:18;17.20;;;8.10;;
289;SDS011;13193;48.874;9.086;2022-08-18T08:38:53;18.93;;;7.87;;
289;SDS011;13193;48.874;9.086;2022-08-18T08:44:07;10.37;;;7.53;;
289;SDS011;13193;48.874;9.086;2022-08-18T08:46:42;9.60;;;6.73;;
289;SDS011;13193;48.874;9.086;2022-08-18T08:49:26;15.60;;;6.80;;
289;SDS011;13193;48.874;9.086;2022-08-18T08:51:54;10.10;;;7.23;;
289;SDS011;13193;48.874;9.086;2022-08-18T08:57:16;12.57;;;6.90;;
289;SDS011;13193;48.874;9.086;2022-08-18T08:59:43;13.53;;;7.33;;
289;SDS011;13193;48.874;9.086;2022-08-18T09:05:06;13.67;;;7.57;;
289;SDS011;13193;48.874;9.086;2022-08-18T09:10:53;15.10;;;7.17;;
289;SDS011;13193;48.874;9.086;2022-08-18T09:24:59;11.57;;;8.00;;
289;SDS011;13193;48.874;9.086;2022-08-18T09:27:37;17.37;;;9.83;;
289;SDS011;13193;48.874;9.086;2022-08-18T09:30:35;19.60;;;9.07;;
289;SDS011;13193;48.874;9.086;2022-08-18T09:47:10;13.20;;;8.87;;
289;SDS011;13193;48.874;9.086;2022-08-18T09:49:44;13.93;;;9.33;;
289;SDS011;13193;48.874;9.086;2022-08-18T09:52:45;15.60;;;10.47;;
289;SDS011;13193;48.874;9.086;2022-08-18T09:57:47;13.80;;;9.47;;
289;SDS011;13193;48.874;9.086;2022-08-18T10:00:45;12.10;;;8.73;;
289;SDS011;13193;48.874;9.086;2022-08-18T10:06:43;14.90;;;8.17;;
289;SDS011;13193;48.874;9.086;2022-08-18T10:14:55;13.63;;;9.30;;
289;SDS011;13193;48.874;9.086;2022-08-18T10:17:49;15.40;;;9.27;;
289;SDS011;13193;48.874;9.086;2022-08-18T10:28:55;12.80;;;8.83;;
289;SDS011;13193;48.874;9.086;2022-08-18T10:31:25;16.30;;;9.60;;
289;SDS011;13193;48.874;9.086;2022-08-18T10:33:56;15.40;;;9.80;;
289;SDS011;13193;48.874;9.086;2022-08-18T10:39:43;14.10;;;8.50;;
289;SDS011;13193;48.874;9.086;2022-08-18T10:42:17;13.17;;;7.87;;
289;SDS011;13193;48.874;9.086;2022-08-18T10:45:11;11.33;;;8.80;;
289;SDS011;13193;48.874;9.086;2022-08-18T10:51:01;14.20;;;8.90;;
289;SDS011;13193;48.874;9.086;2022-08-18T10:56:34;11.37;;;8.50;;
289;SDS011;13193;48.874;9.086;2022-08-18T11:04:25;11.57;;;8.93;;
289;SDS011;13193;48.874;9.086;2022-08-18T11:07:18;11.70;;;8.50;;
289;SDS011;13193;48.874;9.086;2022-08-18T11:09:53;11.80;;;8.93;;
289;SDS011;13193;48.874;9.086;2022-08-18T11:15:20;11.97;;;9.27;;
289;SDS011;13193;48.874;9.086;2022-08-18T11:20:41;12.90;;;10.33;;
289;SDS011;13193;48.874;9.086;2022-08-18T11:23:11;14.33;;;8.97;;
289;SDS011;13193;48.874;9.086;2022-08-18T11:25:39;14.83;;;10.47;;
289;SDS011;13193;48.874;9.086;2022-08-18T11:28:16;17.33;;;9.63;;
289;SDS011;13193;48.874;9.086;2022-08-18T11:30:47;12.03;;;8.67;;
289;SDS011;13193;48.874;9.086;2022-08-18T11:33:19;15.17;;;10.53;;
289;SDS011;13193;48.874;9.086;2022-08-18T11:35:48;12.30;;;9.50;;
289;SDS011;13193;48.874;9.086;2022-08-18T11:38:16;14.37;;;9.30;;
289;SDS011;13193;48.874;9.086;2022-08-18T11:40:43;13.43;;;8.90;;
289;SDS011;13193;48.874;9.086;2022-08-18T11:43:15;12.90;;;8.00;;
289;SDS011;13193;48.874;9.086;2022-08-18T11:46:15;12.30;;;8.30;;
289;SDS011;13193;48.874;9.086;2022-08-18T11:48:50;17.50;;;9.40;;
289;SDS011;13193;48.874;9.086;2022-08-18T11:54:22;12.07;;;8.27;;
289;SDS011;13193;48.874;9.086;2022-08-18T12:05:46;16.00;;;9.57;;
289;SDS011;13193;48.874;9.086;2022-08-18T12:08:31;13.40;;;9.93;;
289;SDS011;13193;48.874;9.086;2022-08-18T12:11:33;15.43;;;9.30;;
289;SDS011;13193;48.874;9.086;2022-08-18T12:13:57;17.10;;;10.40;;
289;SDS011;13193;48.874;9.086;2022-08-18T12:16:38;14.13;;;9.03;;
289;SDS011;13193;48.874;9.086;2022-08-18T12:19:09;12.13;;;8.37;;
289;SDS011;13193;48.874;9.086;2022-08-18T12:21:40;11.93;;;9.10;;
289;SDS011;13193;48.874;9.086;2022-08-18T12:24:19;12.40;;;9.77;;
289;SDS011;13193;48.874;9.086;2022-08-18T12:26:49;13.53;;;8.97;;
289;SDS011;13193;48.874;9.086;2022-08-18T12:29:15;12.50;;;7.00;;
289;SDS011;13193;48.874;9.086;2022-08-18T12:31:46;16.43;;;10.20;;
289;SDS011;13193;48.874;9.086;2022-08-18T12:34:23;13.50;;;9.93;;
289;SDS011;13193;48.874;9.086;2022-08-18T12:36:56;14.03;;;9.00;;
289;SDS011;13193;48.874;9.086;2022-08-18T12:39:24;18.60;;;11.30;;
289;SDS011;13193;48.874;9.086;2022-08-18T12:41:50;14.17;;;9.00;;
289;SDS011;13193;48.874;9.086;2022-08-18T12:44:16;17.83;;;10.10;;
289;SDS011;13193;48.874;9.086;2022-08-18T12:46:42;14.17;;;8.03;;
289;SDS011;13193;48.874;9.086;2022-08-18T12:49:15;14.33;;;10.33;;
289;SDS011;13193;48.874;9.086;2022-08-18T12:51:43;10.70;;;8.10;;
289;SDS011;13193;48.874;9.086;2022-08-18T12:54:09;13.70;;;8.70;;
289;SDS011;13193;48.874;9.086;2022-08-18T12:56:35;10.97;;;8.80;;
289;SDS011;13193;48.874;9.086;2022-08-18T12:59:03;16.87;;;9.07;;
289;SDS011;13193;48.874;9.086;2022-08-18T13:01:30;15.10;;;9.00;;
289;SDS011;13193;48.874;9.086;2022-08-18T13:03:56;10.03;;;7.27;;
289;SDS011;13193;48.874;9.086;2022-08-18T13:06:23;11.53;;;8.33;;
289;SDS011;13193;48.874;9.086;2022-08-18T13:08:52;13.47;;;9.30;;
289;SDS011;13193;48.874;9.086;2022-08-18T13:11:21;14.93;;;8.43;;
289;SDS011;13193;48.874;9.086;2022-08-18T13:13:48;15.17;;;8.43;;
289;SDS011;13193;48.874;9.086;2022-08-18T13:16:15;17.23;;;9.90;;
289;SDS011;13193;48.874;9.086;2022-08-18T13:18:42;13.00;;;9.00;;
289;SDS011;13193;48.874;9.086;2022-08-18T13:21:09;9.83;;;7.20;;
289;SDS011;13193;48.874;9.086;2022-08-18T13:23:39;10.90;;;8.40;;
289;SDS011;13193;48.874;9.086;2022-08-18T13:26:08;12.43;;;8.73;;
289;SDS011;13193;48.874;9.086;2022-08-18T13:28:36;13.20;;;8.87;;
289;SDS011;13193;48.874;9.086;2022-08-18T13:31:04;14.10;;;8.77;;
289;SDS011;13193;48.874;9.086;2022-08-18T13:33:30;18.07;;;9.73;;
289;SDS011;13193;48.874;9.086;2022-08-18T13:35:57;16.17;;;8.40;;
289;SDS011;13193;48.874;9.086;2022-08-18T13:38:23;20.83;;;8.60;;
289;SDS011;13193;48.874;9.086;2022-08-18T13:40:51;12.10;;;8.57;;
289;SDS011;13193;48.874;9.086;2022-08-18T13:43:22;16.63;;;8.17;;
289;SDS011;13193;48.874;9.086;2022-08-18T13:45:53;12.03;;;7.73;;
289;SDS011;13193;48.874;9.086;2022-08-18T13:48:20;12.70;;;8.57;;
289;SDS011;13193;48.874;9.086;2022-08-18T13:50:45;15.37;;;10.10;;
289;SDS011;13193;48.874;9.086;2022-08-18T13:53:15;20.90;;;9.27;;
289;SDS011;13193;48.874;9.086;2022-08-18T13:55:43;11.47;;;8.47;;
289;SDS011;13193;48.874;9.086;2022-08-18T13:58:10;15.33;;;9.17;;
289;SDS011;13193;48.874;9.086;2022-08-18T14:00:36;14.43;;;8.53;;
289;SDS011;13193;48.874;9.086;2022-08-18T14:03:03;14.87;;;9.30;;
289;SDS011;13193;48.874;9.086;2022-08-18T14:05:30;14.73;;;8.77;;
289;SDS011;13193;48.874;9.086;2022-08-18T14:07:57;15.70;;;8.20;;
289;SDS011;13193;48.874;9.086;2022-08-18T14:10:23;14.23;;;8.80;;
289;SDS011;13193;48.874;9.086;2022-08-18T14:12:50;11.77;;;7.70;;
289;SDS011;13193;48.874;9.086;2022-08-18T14:15:18;10.53;;;8.00;;
289;SDS011;13193;48.874;9.086;2022-08-18T14:17:44;10.77;;;8.20;;
289;SDS011;13193;48.874;9.086;2022-08-18T14:20:10;11.77;;;8.10;;
289;SDS011;13193;48.874;9.086;2022-08-18T14:22:56;16.33;;;7.53;;
289;SDS011;13193;48.874;9.086;2022-08-18T14:25:41;11.90;;;8.77;;
289;SDS011;13193;48.874;9.086;2022-08-18T14:28:27;9.27;;;7.50;;
289;SDS011;13193;48.874;9.086;2022-08-18T14:30:56;10.97;;;7.37;;
289;SDS011;13193;48.874;9.086;2022-08-18T14:33:24;9.87;;;7.70;;
289;SDS011;13193;48.874;9.086;2022-08-18T14:35:56;8.80;;;6.97;;
289;SDS011;13193;48.874;9.086;2022-08-18T14:38:22;15.63;;;8.90;;
289;SDS011;13193;48.874;9.086;2022-08-18T14:40:50;9.63;;;6.63;;
289;SDS011;13193;48.874;9.086;2022-08-18T14:43:19;10.87;;;7.90;;
289;SDS011;13193;48.874;9.086;2022-08-18T14:45:46;8.93;;;7.20;;
289;SDS011;13193;48.874;9.086;2022-08-18T14:48:13;11.87;;;8.07;;
289;SDS011;13193;48.874;9.086;2022-08-18T14:50:50;10.10;;;7.07;;
289;SDS011;13193;48.874;9.086;2022-08-18T14:53:23;10.20;;;7.93;;
289;SDS011;13193;48.874;9.086;2022-08-18T14:55:52;11.47;;;7.67;;
289;SDS011;13193;48.874;9.086;2022-08-18T14:58:22;9.40;;;6.50;;
289;SDS011;13193;48.874;9.086;2022-08-18T15:00:51;8.20;;;6.80;;
289;SDS011;13193;48.874;9.086;2022-08-18T15:03:21;8.37;;;7.13;;
289;SDS011;13193;48.874;9.086;2022-08-18T15:05:51;11.63;;;8.07;;
289;SDS011;13193;48.874;9.086;2022-08-18T15:08:17;10.07;;;7.73;;
289;SDS011;13193;48.874;9.086;2022-08-18T15:10:45;8.07;;;6.03;;
289;SDS011;13193;48.874;9.086;2022-08-18T15:13:14;9.77;;;7.00;;
289;SDS011;13193;48.874;9.086;2022-08-18T15:15:42;8.30;;;6.90;;
289;SDS011;13193;48.874;9.086;2022-08-18T15:18:13;13.73;;;8.30;;
289;SDS011;13193;48.874;9.086;2022-08-18T15:20:48;16.70;;;7.77;;
289;SDS011;13193;48.874;9.086;2022-08-18T15:23:35;11.50;;;7.13;;
289;SDS011;13193;48.874;9.086;2022-08-18T15:26:21;11.63;;;7.90;;
289;SDS011;13193;48.874;9.086;2022-08-18T15:28:49;10.20;;;6.97;;
289;SDS011;13193;48.874;9.086;2022-08-18T15:31:17;10.30;;;8.17;;
289;SDS011;13193;48.874;9.086;2022-08-18T15:33:43;8.03;;;6.47;;
289;SDS011;13193;48.874;9.086;2022-08-18T15:36:09;10.17;;;6.90;;
289;SDS011;13193;48.874;9.086;2022-08-18T15:38:34;9.90;;;7.93;;
289;SDS011;13193;48.874;9.086;2022-08-18T15:41:02;14.67;;;7.40;;
289;SDS011;13193;48.874;9.086;2022-08-18T15:43:30;9.47;;;6.70;;
289;SDS011;13193;48.874;9.086;2022-08-18T15:45:56;12.10;;;6.97;;
289;SDS011;13193;48.874;9.086;2022-08-18T15:48:23;9.23;;;6.23;;
289;SDS011;13193;48.874;9.086;2022-08-18T15:50:51;9.57;;;6.50;;
289;SDS011;13193;48.874;9.086;2022-08-18T15:53:25;11.20;;;6.90;;
289;SDS011;13193;48.874;9.086;2022-08-18T15:55:56;8.60;;;6.80;;
289;SDS011;13193;48.874;9.086;2022-08-18T15:58:22;11.67;;;7.10;;
289;SDS011;13193;48.874;9.086;2022-08-18T16:00:47;16.30;;;8.07;;
289;SDS011;13193;48.874;9.086;2022-08-18T16:03:16;8.73;;;6.30;;
289;SDS011;13193;48.874;9.086;2022-08-18T16:05:47;22.63;;;7.57;;
289;SDS011;13193;48.874;9.086;2022-08-18T16:08:15;13.60;;;7.10;;
289;SDS011;13193;48.874;9.086;2022-08-18T16:10:42;12.93;;;7.03;;
289;SDS011;13193;48.874;9.086;2022-08-18T16:13:08;14.13;;;7.00;;
289;SDS011;13193;48.874;9.086;2022-08-18T16:15:36;16.03;;;6.90;;
289;SDS011;13193;48.874;9.086;2022-08-18T16:18:04;10.17;;;6.50;;
289;SDS011;13193;48.874;9.086;2022-08-18T16:20:30;10.90;;;6.77;;
289;SDS011;13193;48.874;9.086;2022-08-18T16:22:57;11.50;;;6.67;;
289;SDS011;13193;48.874;9.086;2022-08-18T16:25:25;8.90;;;6.50;;
289;SDS011;13193;48.874;9.086;2022-08-18T16:27:52;15.83;;;7.77;;
289;SDS011;13193;48.874;9.086;2022-08-18T16:30:22;13.50;;;6.93;;
289;SDS011;13193;48.874;9.086;2022-08-18T16:32:49;10.40;;;6.50;;
289;SDS011;13193;48.874;9.086;2022-08-18T16:35:16;9.23;;;7.20;;
289;SDS011;13193;48.874;9.086;2022-08-18T16:37:43;10.43;;;8.10;;
289;SDS011;13193;48.874;9.086;2022-08-18T16:40:11;10.77;;;7.53;;
289;SDS011;13193;48.874;9.086;2022-08-18T16:42:37;13.00;;;8.17;;
289;SDS011;13193;48.874;9.086;2022-08-18T16:45:03;12.50;;;7.70;;
289;SDS011;13193;48.874;9.086;2022-08-18T16:47:30;11.70;;;7.70;;
289;SDS011;13193;48.874;9.086;2022-08-18T16:49:56;13.83;;;8.70;;
289;SDS011;13193;48.874;9.086;2022-08-18T16:52:22;13.60;;;8.47;;
289;SDS011;13193;48.874;9.086;2022-08-18T16:54:48;13.00;;;8.37;;
289;SDS011;13193;48.874;9.086;2022-08-18T16:57:14;15.43;;;8.30;;
289;SDS011;13193;48.874;9.086;2022-08-18T17:00:04;17.00;;;8.27;;
289;SDS011;13193;48.874;9.086;2022-08-18T17:02:48;11.90;;;8.80;;
289;SDS011;13193;48.874;9.086;2022-08-18T17:05:33;12.67;;;8.37;;
289;SDS011;13193;48.874;9.086;2022-08-18T17:07:59;12.13;;;8.87;;
289;SDS011;13193;48.874;9.086;2022-08-18T17:10:25;17.90;;;7.70;;
289;SDS011;13193;48.874;9.086;2022-08-18T17:12:51;13.50;;;8.93;;
289;SDS011;13193;48.874;9.086;2022-08-18T17:15:16;12.17;;;8.33;;
289;SDS011;13193;48.874;9.086;2022-08-18T17:17:42;12.20;;;8.60;;
289;SDS011;13193;48.874;9.086;2022-08-18T17:20:09;12.73;;;7.63;;
289;SDS011;13193;48.874;9.086;2022-08-18T17:22:35;14.57;;;8.43;;
289;SDS011;13193;48.874;9.086;2022-08-18T17:25:00;12.10;;;9.43;;
289;SDS011;13193;48.874;9.086;2022-08-18T17:27:30;11.03;;;8.37;;
289;SDS011;13193;48.874;9.086;2022-08-18T17:30:00;12.07;;;9.07;;
289;SDS011;13193;48.874;9.086;2022-08-18T17:35:14;13.53;;;9.03;;
289;SDS011;13193;48.874;9.086;2022-08-18T17:37:46;12.97;;;9.60;;
289;SDS011;13193;48.874;9.086;2022-08-18T17:40:21;14.63;;;10.20;;
289;SDS011;13193;48.874;9.086;2022-08-18T17:42:51;22.03;;;10.50;;
289;SDS011;13193;48.874;9.086;2022-08-18T17:45:17;13.30;;;10.40;;
289;SDS011;13193;48.874;9.086;2022-08-18T17:48:03;13.80;;;9.90;;
289;SDS011;13193;48.874;9.086;2022-08-18T17:53:29;16.10;;;12.20;;
289;SDS011;13193;48.874;9.086;2022-08-18T17:56:06;18.73;;;11.67;;
289;SDS011;13193;48.874;9.086;2022-08-18T18:01:20;13.63;;;10.47;;
289;SDS011;13193;48.874;9.086;2022-08-18T18:03:46;14.30;;;10.23;;